Time;durP1;ratioP1;P1;durP2;ratioP2;P2;SDS_P1;SDS_P2;PMS_P1;PMS_P2;Temp;Humidity;BMP_temperature;BMP_pressure;BME280_temperature;BME280_humidity;BME280_pressure;Samples;Min_cycle;Max_cycle;Signal;HPM_P1;HPM_P2
2023/08/28 00:02:12;;;;;;;2.10;0.70;;;;;;;;;;4939633;29;20149;-75
2023/08/28 00:04:38;;;;;;;2.05;0.63;;;;;;;;;;4922576;29;20062;-76
2023/08/28 00:07:04;;;;;;;1.63;0.80;;;;;;;;;;4922655;29;20028;-76
2023/08/28 00:09:34;;;;;;;2.28;0.73;;;;;;;;;;4926061;29;20027;-76
2023/08/28 00:12:00;;;;;;;2.97;1.13;;;;;;;;;;4945987;29;20051;-77
2023/08/28 00:14:26;;;;;;;1.77;0.70;;;;;;;;;;4928055;29;20032;-77
2023/08/28 00:16:53;;;;;;;2.13;0.60;;;;;;;;;;4945571;29;20473;-75
2023/08/28 00:19:19;;;;;;;2.45;0.70;;;16.40;99.90;;;;;;4929046;29;20433;-76
2023/08/28 00:21:44;;;;;;;2.20;0.60;;;16.40;99.90;;;;;;4946255;29;20028;-76
2023/08/28 00:24:10;;;;;;;2.85;0.98;;;16.30;99.90;;;;;;4946039;29;20056;-76
2023/08/28 00:26:36;;;;;;;2.90;0.70;;;16.30;99.90;;;;;;4945955;29;20031;-76
2023/08/28 00:29:02;;;;;;;3.38;0.70;;;16.10;99.90;;;;;;4945887;29;20043;-76
2023/08/28 00:31:28;;;;;;;4.00;0.80;;;16.00;99.90;;;;;;4928772;29;20031;-77
2023/08/28 00:33:54;;;;;;;1.52;0.50;;;16.00;99.90;;;;;;4928810;29;20036;-77
2023/08/28 00:36:20;;;;;;;3.72;0.80;;;16.00;99.90;;;;;;4945932;29;20484;-75
2023/08/28 00:38:45;;;;;;;2.22;0.98;;;16.00;99.90;;;;;;4939410;29;20067;-77
2023/08/28 00:41:11;;;;;;;1.65;0.60;;;16.00;99.90;;;;;;4922643;29;20027;-76
2023/08/28 00:43:37;;;;;;;2.53;0.90;;;;;;;;;;4945993;29;20024;-77
2023/08/28 00:46:04;;;;;;;2.45;0.60;;;;;;;;;;4928832;29;20074;-78
2023/08/28 00:48:30;;;;;;;1.75;0.75;;;;;;;;;;4945757;29;20030;-77
2023/08/28 00:50:57;;;;;;;2.20;0.90;;;;;;;;;;4945958;29;20060;-77
2023/08/28 00:53:23;;;;;;;2.83;0.60;;;;;;;;;;4945912;29;20028;-79
2023/08/28 00:55:49;;;;;;;2.15;0.68;;;;;;;;;;4945514;29;20031;-77
2023/08/28 00:58:16;;;;;;;3.13;0.55;;;;;;;;;;4945954;29;20062;-77
2023/08/28 01:00:42;;;;;;;2.88;0.63;;;;;;;;;;4945653;29;20027;-77
2023/08/28 01:03:09;;;;;;;2.50;0.68;;;;;;;;;;4928671;29;20030;-78
2023/08/28 01:05:44;;;;;;;1.90;0.50;;;;;;;;;;4945668;29;20035;-77
2023/08/28 01:08:24;;;;;;;1.58;0.68;;;;;;;;;;4945740;29;20074;-78
2023/08/28 01:10:54;;;;;;;3.45;0.68;;;;;;;;;;4945605;29;20028;-77
2023/08/28 01:13:25;;;;;;;1.83;0.57;;;;;;;;;;4945693;29;20409;-78
2023/08/28 01:15:52;;;;;;;1.52;0.65;;;;;;;;;;4928074;29;20056;-76
2023/08/28 01:18:18;;;;;;;2.45;0.90;;;;;;;;;;4945682;29;20136;-77
2023/08/28 01:20:47;;;;;;;3.95;0.75;;;;;;;;;;4926269;29;20028;-77
2023/08/28 01:23:48;;;;;;;3.42;0.80;;;;;;;;;;4942879;29;20055;-77
2023/08/28 01:26:14;;;;;;;3.45;0.70;;;;;;;;;;4883792;29;20052;-76
2023/08/28 01:28:40;;;;;;;2.63;0.75;;;;;;;;;;4930588;29;20040;-77
2023/08/28 01:31:06;;;;;;;2.88;0.82;;;;;;;;;;4942348;29;20027;-80
2023/08/28 01:33:33;;;;;;;1.42;0.70;;;;;;;;;;4942374;29;20036;-80
2023/08/28 01:36:13;;;;;;;2.72;0.93;;;;;;;;;;4925555;29;20056;-80
2023/08/28 01:38:50;;;;;;;2.00;0.80;;;;;;;;;;4919675;29;20036;-80
2023/08/28 01:41:18;;;;;;;0.85;0.50;;;;;;;;;;4936679;29;20027;-80
2023/08/28 01:43:47;;;;;;;1.75;0.60;;;;;;;;;;4942556;29;20024;-82
2023/08/28 01:46:13;;;;;;;1.88;0.55;;;;;;;;;;4941842;29;20485;-79
2023/08/28 01:48:44;;;;;;;1.60;0.80;;;;;;;;;;4942040;29;20031;-80
2023/08/28 01:51:10;;;;;;;1.05;0.60;;;;;;;;;;4942019;29;20031;-79
2023/08/28 01:53:36;;;;;;;0.93;0.63;;;;;;;;;;4942109;29;20031;-81
2023/08/28 01:56:08;;;;;;;1.15;0.52;;;;;;;;;;4941709;29;20413;-80
2023/08/28 01:58:36;;;;;;;1.25;0.52;;;;;;;;;;4942074;29;20024;-80
2023/08/28 02:01:02;;;;;;;2.58;0.50;;;;;;;;;;4942148;29;20020;-80
2023/08/28 02:03:30;;;;;;;1.70;0.68;;;;;;;;;;4926010;29;20107;-81
2023/08/28 02:05:56;;;;;;;1.75;0.65;;;;;;;;;;4927829;29;20027;-81
2023/08/28 02:08:22;;;;;;;2.05;0.60;;;;;;;;;;4951264;29;20032;-80
2023/08/28 02:10:48;;;;;;;2.03;0.50;;;;;;;;;;4924430;29;20028;-80
2023/08/28 02:13:14;;;;;;;2.40;0.80;;;;;;;;;;4941900;29;20038;-79
2023/08/28 02:15:40;;;;;;;1.48;0.60;;;;;;;;;;4941393;29;20481;-80
2023/08/28 02:18:06;;;;;;;2.15;0.68;;;;;;;;;;4941690;29;20099;-80
2023/08/28 02:20:32;;;;;;;1.90;0.60;;;;;;;;;;4941425;29;20031;-79
2023/08/28 02:22:59;;;;;;;1.95;0.70;;;;;;;;;;4941611;29;20528;-80
2023/08/28 02:25:25;;;;;;;2.40;0.70;;;;;;;;;;4941529;29;20062;-79
2023/08/28 02:27:51;;;;;;;0.88;0.68;;;;;;;;;;4941507;29;20032;-80
2023/08/28 02:30:17;;;;;;;1.88;0.73;;;;;;;;;;4941314;29;20032;-80
2023/08/28 02:32:44;;;;;;;2.85;0.63;;;;;;;;;;4940978;29;20038;-80
2023/08/28 02:35:11;;;;;;;1.67;0.80;;;;;;;;;;4941319;29;20035;-79
2023/08/28 02:37:37;;;;;;;1.60;0.70;;;;;;;;;;4924183;29;20031;-80
2023/08/28 02:40:04;;;;;;;2.15;0.75;;;;;;;;;;4928229;29;20024;-80
2023/08/28 02:42:30;;;;;;;2.17;0.68;;;;;;;;;;4924057;29;20038;-79
2023/08/28 02:44:56;;;;;;;1.45;0.68;;;;;;;;;;4940937;29;20023;-79
2023/08/28 02:47:22;;;;;;;1.38;0.52;;;;;;;;;;4940927;29;20528;-80
2023/08/28 02:49:48;;;;;;;1.20;0.60;;;;;;;;;;4924919;29;20043;-79
2023/08/28 02:52:14;;;;;;;2.35;0.52;;;;;;;;;;4941053;29;20035;-79
2023/08/28 02:54:40;;;;;;;1.10;0.75;;;;;;;;;;4923504;29;20474;-81
2023/08/28 02:57:06;;;;;;;1.77;0.80;;;;;;;;;;4941003;29;20028;-79
2023/08/28 02:59:32;;;;;;;1.77;0.57;;;;;;;;;;4940755;29;20035;-81
2023/08/28 03:01:58;;;;;;;2.33;0.90;;;;;;;;;;4940776;29;20028;-80
2023/08/28 03:04:24;;;;;;;3.47;0.90;;;;;;;;;;4923504;29;20032;-79
2023/08/28 03:06:50;;;;;;;1.90;0.90;;;;;;;;;;4923861;29;20074;-78
2023/08/28 03:09:16;;;;;;;2.25;1.05;;;;;;;;;;4940565;29;20028;-78
2023/08/28 03:11:42;;;;;;;1.73;1.10;;;;;;;;;;4940635;29;20066;-78
2023/08/28 03:14:09;;;;;;;2.78;0.70;;;;;;;;;;4940332;29;20041;-78
2023/08/28 03:16:35;;;;;;;2.60;0.82;;;;;;;;;;4923269;29;20032;-79
2023/08/28 03:19:01;;;;;;;1.48;0.77;;;;;;;;;;4940310;29;20035;-80
2023/08/28 03:21:27;;;;;;;1.95;0.80;;;;;;;;;;4940542;29;20032;-79
2023/08/28 03:23:53;;;;;;;3.33;1.15;;;;;;;;;;4940172;29;20628;-79
2023/08/28 03:26:19;;;;;;;2.25;0.93;;;;;;;;;;4940373;29;20177;-79
2023/08/28 03:28:45;;;;;;;2.20;1.00;;;;;;;;;;4923053;29;20031;-79
2023/08/28 03:31:16;;;;;;;1.58;0.95;;;;;;;;;;4923220;29;20031;-83
2023/08/28 03:43:32;;;;;;;1.70;0.77;;;;;;;;;;4832050;29;20031;-80
2023/08/28 03:45:58;;;;;;;2.72;1.02;;;;;;;;;;4929206;29;20440;-80
2023/08/28 03:48:26;;;;;;;2.58;0.93;;;;;;;;;;4939952;29;20476;-84
2023/08/28 03:50:52;;;;;;;3.75;1.05;;;;;;;;;;4923054;29;20020;-83
2023/08/28 03:53:21;;;;;;;1.95;1.00;;;;;;;;;;4923198;29;20500;-83
2023/08/28 03:55:49;;;;;;;1.27;0.90;;;;;;;;;;4922326;29;20135;-83
2023/08/28 03:58:18;;;;;;;3.42;1.25;;;;;;;;;;4922884;29;20031;-82
2023/08/28 04:00:47;;;;;;;3.20;1.10;;;;;;;;;;4939842;29;20023;-83
2023/08/28 04:03:13;;;;;;;2.58;1.10;;;;;;;;;;4939870;29;20032;-81
2023/08/28 04:05:39;;;;;;;3.28;1.38;;;;;;;;;;4939757;29;20027;-80
2023/08/28 04:08:05;;;;;;;3.20;1.50;;;;;;;;;;4939960;29;20055;-80
2023/08/28 04:10:32;;;;;;;2.20;1.25;;;;;;;;;;4939675;29;20027;-80
2023/08/28 04:12:57;;;;;;;1.98;1.20;;;;;;;;;;4939889;29;20032;-81
2023/08/28 04:15:23;;;;;;;3.05;1.30;;;;;;;;;;4922508;29;20024;-81
2023/08/28 04:17:49;;;;;;;3.15;0.98;;;;;;;;;;4939666;29;20039;-81
2023/08/28 04:20:16;;;;;;;6.22;1.30;;;;;;;;;;4922864;29;20024;-81
2023/08/28 04:22:43;;;;;;;2.47;1.20;;;;;;;;;;4947543;29;20058;-81
2023/08/28 04:25:10;;;;;;;2.65;1.00;;;;;;;;;;4944356;29;20543;-81
2023/08/28 04:27:37;;;;;;;2.58;1.15;;;;;;;;;;4939568;29;20099;-81
2023/08/28 04:30:04;;;;;;;2.20;1.15;;;;;;;;;;4939598;29;20027;-81
2023/08/28 04:32:30;;;;;;;3.53;1.08;;;;;;;;;;4922224;29;20035;-82
2023/08/28 04:34:56;;;;;;;3.28;1.15;;;;;;;;;;4922587;29;20097;-80
2023/08/28 04:37:24;;;;;;;2.38;1.17;;;;;;;;;;4939623;29;20597;-80
2023/08/28 04:39:50;;;;;;;3.03;1.27;;;;;;;;;;4926524;29;20430;-80
2023/08/28 04:42:16;;;;;;;3.28;1.35;;;;;;;;;;4939549;29;20107;-80
2023/08/28 04:44:42;;;;;;;2.55;1.10;;;;;;;;;;4939450;29;20457;-80
2023/08/28 04:47:08;;;;;;;2.30;1.20;;;;;;;;;;4939026;29;20031;-81
2023/08/28 04:49:34;;;;;;;3.30;1.38;;;;;;;;;;4939388;29;20034;-81
2023/08/28 04:52:00;;;;;;;2.40;1.10;;;;;;;;;;4939543;29;20079;-80
2023/08/28 04:54:26;;;;;;;1.85;1.20;;;;;;;;;;4939232;29;20031;-80
2023/08/28 04:56:52;;;;;;;1.83;1.08;;;;;;;;;;4941753;29;20035;-80
2023/08/28 04:59:18;;;;;;;3.35;1.05;;;;;;;;;;4942880;29;20026;-80
2023/08/28 05:01:44;;;;;;;1.98;1.08;;;;;;;;;;4942927;29;20024;-79
2023/08/28 05:04:10;;;;;;;2.80;1.30;;;;;;;;;;4942756;29;20027;-79
2023/08/28 05:06:36;;;;;;;2.15;1.35;;;;;;;;;;4942922;29;20032;-80
2023/08/28 05:09:03;;;;;;;3.05;1.15;;;;;;;;;;4942706;29;20068;-81
2023/08/28 05:11:29;;;;;;;1.60;0.93;;;;;;;;;;4925913;29;20437;-81
2023/08/28 05:13:58;;;;;;;2.65;1.30;;;;;;;;;;4942662;29;20497;-83
2023/08/28 05:16:28;;;;;;;2.83;1.13;;;;;;;;;;4942697;29;20031;-83
2023/08/28 05:18:56;;;;;;;3.35;1.08;;;;;;;;;;4925923;29;20111;-82
2023/08/28 05:21:34;;;;;;;4.47;1.00;;;;;;;;;;4928519;29;20028;-82
2023/08/28 05:24:45;;;;;;;2.15;1.00;;;;;;;;;;4927208;29;20043;-82
2023/08/28 05:27:11;;;;;;;3.22;1.00;;;;;;;;;;4942469;29;20024;-80
2023/08/28 05:29:39;;;;;;;1.45;0.93;;;;;;;;;;4925330;29;20119;-83
2023/08/28 05:32:05;;;;;;;2.70;1.27;;;;;;;;;;4941989;29;20055;-83
2023/08/28 05:34:32;;;;;;;1.50;0.85;;;;;;;;;;4942756;29;20043;-83
2023/08/28 05:37:00;;;;;;;1.48;0.98;;;;;;;;;;4925295;29;20047;-82
2023/08/28 05:39:38;;;;;;;1.45;0.88;;;;;;;;;;4913169;29;20056;-81
2023/08/28 05:42:07;;;;;;;2.50;1.02;;;;;;;;;;4913256;29;20020;-83
2023/08/28 05:44:33;;;;;;;1.83;0.90;;;;;;;;;;4925084;29;20042;-82
2023/08/28 05:46:59;;;;;;;1.40;1.02;;;;;;;;;;4924746;29;20535;-81
2023/08/28 05:49:25;;;;;;;3.47;1.00;;;;;;;;;;4926392;29;20035;-81
2023/08/28 05:51:51;;;;;;;3.10;0.90;;;;;;;;;;4942183;29;20027;-81
2023/08/28 05:54:17;;;;;;;2.83;0.85;;;;;;;;;;4924928;29;20039;-81
2023/08/28 05:56:43;;;;;;;1.40;0.82;;;;;;;;;;4951217;29;20028;-79
2023/08/28 05:59:09;;;;;;;1.73;1.10;;;;;;;;;;4933077;29;20083;-80
2023/08/28 06:01:37;;;;;;;1.85;0.93;;;;;;;;;;4952496;29;20023;-82
2023/08/28 06:04:03;;;;;;;3.13;0.90;;;;;;;;;;4931886;29;20054;-81
2023/08/28 06:07:08;;;;;;;2.58;0.98;;;;;;;;;;4924289;29;20038;-82
2023/08/28 06:09:59;;;;;;;1.15;0.70;;;;;;;;;;4941849;29;20038;-84
2023/08/28 06:15:52;;;;;;;;;;;;;;;;;;;;;
2023/08/28 06:24:34;;;;;;;2.25;0.80;;;;;;;;;;4819739;29;20058;-79
2023/08/28 06:27:01;;;;;;;2.38;0.88;;;;;;;;;;4874129;29;20053;-80
2023/08/28 06:29:27;;;;;;;2.03;0.82;;;;;;;;;;4882176;29;20021;-79
2023/08/28 06:31:53;;;;;;;4.35;0.88;;;;;;;;;;4881945;29;20044;-80
2023/08/28 06:34:19;;;;;;;1.80;0.90;;;;;;;;;;4881895;29;20033;-80
2023/08/28 06:36:45;;;;;;;2.70;0.60;;;;;;;;;;4880443;29;20112;-80
2023/08/28 06:39:12;;;;;;;2.60;0.90;;;;;;;;;;4866232;29;20037;-79
2023/08/28 06:41:38;;;;;;;1.20;0.80;;;;;;;;;;4882218;29;20093;-79
2023/08/28 06:44:07;;;;;;;1.15;0.75;;;;;;;;;;4881520;29;20036;-81
2023/08/28 06:46:33;;;;;;;3.47;0.80;;;;;;;;;;4885301;29;20059;-78
2023/08/28 06:48:59;;;;;;;1.63;0.80;;;;;;;;;;4902620;29;20028;-78
2023/08/28 06:51:25;;;;;;;1.55;0.70;;;;;;;;;;4902566;29;20035;-80
2023/08/28 06:53:52;;;;;;;3.05;0.80;;;;;;;;;;4902302;29;20020;-77
2023/08/28 06:56:19;;;;;;;1.33;0.57;;;;;;;;;;4902326;29;20032;-78
2023/08/28 06:58:45;;;;;;;1.40;0.50;;;;;;;;;;4902810;29;20033;-76
2023/08/28 07:01:11;;;;;;;0.98;0.65;;;;;;;;;;4902331;29;20076;-77
2023/08/28 07:03:37;;;;;;;1.65;0.60;;;;;;;;;;4910212;29;20036;-77
2023/08/28 07:06:03;;;;;;;0.90;0.60;;;;;;;;;;4882647;29;20029;-77
2023/08/28 07:08:29;;;;;;;1.92;0.65;;;;;;;;;;4884106;29;20047;-79
2023/08/28 07:10:55;;;;;;;4.13;0.85;;;;;;;;;;4903223;29;20032;-79
2023/08/28 07:13:21;;;;;;;1.45;0.60;;;;;;;;;;4901377;29;20029;-79
2023/08/28 07:15:47;;;;;;;2.63;0.80;;;;;;;;;;4899018;29;20028;-78
2023/08/28 07:18:13;;;;;;;1.27;0.70;;;;;;;;;;4883442;29;20119;-78
2023/08/28 07:20:39;;;;;;;2.35;0.80;;;;;;;;;;4892261;29;20024;-79
2023/08/28 07:23:05;;;;;;;1.73;0.77;;;;;;;;;;4878862;29;20055;-78
2023/08/28 07:25:31;;;;;;;1.95;0.73;;;;;;;;;;4919461;29;20024;-80
2023/08/28 07:27:57;;;;;;;1.48;0.70;;;;;;;;;;4897649;29;20062;-80
2023/08/28 07:30:23;;;;;;;3.97;1.17;;;;;;;;;;4911118;29;20123;-78
2023/08/28 07:32:49;;;;;;;3.40;1.00;;;;;;;;;;4919863;29;20437;-80
2023/08/28 07:35:15;;;;;;;1.65;0.75;;;;;;;;;;4902441;29;20413;-79
2023/08/28 07:37:41;;;;;;;1.48;0.65;;;;;;;;;;4919098;29;20035;-79
2023/08/28 07:40:08;;;;;;;1.90;0.55;;;;;;;;;;4901269;29;20024;-79
2023/08/28 07:42:34;;;;;;;2.40;0.70;;;;;;;;;;4920398;29;20398;-78
2023/08/28 07:45:00;;;;;;;2.35;0.80;;;;;;;;;;4920401;29;20493;-78
2023/08/28 07:47:26;;;;;;;3.38;0.50;;;;;;;;;;4920477;29;20055;-78
2023/08/28 07:49:52;;;;;;;0.98;0.63;;;;;;;;;;4922027;29;20036;-78
2023/08/28 07:52:18;;;;;;;2.70;0.70;;;;;;;;;;4920717;29;20537;-78
2023/08/28 07:54:44;;;;;;;1.33;0.52;;;;;;;;;;4920580;29;20032;-78
2023/08/28 07:57:10;;;;;;;0.35;0.35;;;;;;;;;;4920901;29;20059;-79
2023/08/28 07:59:37;;;;;;;1.40;0.70;;;;;;;;;;4920723;29;20035;-78
2023/08/28 08:02:04;;;;;;;1.88;0.70;;;;;;;;;;4903777;29;20129;-79
2023/08/28 08:04:31;;;;;;;2.38;0.85;;;;;;;;;;4903743;29;20040;-78
2023/08/28 08:06:57;;;;;;;3.03;0.82;;;;;;;;;;4920871;29;20493;-80
2023/08/28 08:09:24;;;;;;;2.85;0.70;;;;;;;;;;4903598;29;20035;-78
2023/08/28 08:11:50;;;;;;;3.13;0.80;;;;;;;;;;4920692;29;20036;-78
2023/08/28 08:14:16;;;;;;;3.13;0.90;;;;;;;;;;4920670;29;20032;-78
2023/08/28 08:16:42;;;;;;;2.72;0.70;;;;;;;;;;4920312;29;20025;-79
2023/08/28 08:19:08;;;;;;;1.02;0.60;;;;;;;;;;4920479;29;20103;-78
2023/08/28 08:21:34;;;;;;;1.35;0.60;;;;;;;;;;4920820;29;20024;-79
2023/08/28 08:24:00;;;;;;;2.35;1.00;;;;;;;;;;4903755;29;20056;-78
2023/08/28 08:26:28;;;;;;;3.17;0.77;;;;;;;;;;4920663;29;20031;-78
2023/08/28 08:28:54;;;;;;;1.08;0.50;;;;;;;;;;4920253;29;20024;-78
2023/08/28 08:31:20;;;;;;;2.65;0.70;;;;;;;;;;4923225;29;20028;-78
2023/08/28 08:33:46;;;;;;;2.28;0.68;;;;;;;;;;4924169;29;20107;-79
2023/08/28 08:36:14;;;;;;;1.58;0.60;;;;;;;;;;4924294;29;20058;-77
2023/08/28 08:38:40;;;;;;;1.35;0.55;;;;;;;;;;4924216;29;20045;-79
2023/08/28 08:41:07;;;;;;;2.28;0.60;;;;;;;;;;4906926;29;20493;-78
2023/08/28 08:43:33;;;;;;;2.60;0.70;;;;;;;;;;4907142;29;20107;-79
2023/08/28 08:46:05;;;;;;;0.98;0.63;;;;;;;;;;4923911;29;20495;-77
2023/08/28 08:48:34;;;;;;;1.85;0.68;;;;;;;;;;4925147;29;20059;-77
2023/08/28 08:51:05;;;;;;;3.33;0.50;;;;;;;;;;4906977;29;20060;-78
2023/08/28 08:53:40;;;;;;;1.73;0.77;;;;;;;;;;4919292;29;20039;-77
2023/08/28 08:56:07;;;;;;;1.67;0.70;;;;;;;;;;4923122;29;20080;-78
2023/08/28 08:58:33;;;;;;;3.83;0.63;;;;;;;;;;4924055;29;20028;-79
2023/08/28 09:01:00;;;;;;;1.35;0.60;;;;;;;;;;4923505;29;20405;-79
2023/08/28 09:03:26;;;;;;;1.77;0.80;;;;;;;;;;4923809;29;20024;-78
2023/08/28 09:05:53;;;;;;;1.65;0.77;;;;;;;;;;4926979;29;20051;-79
2023/08/28 09:08:21;;;;;;;1.95;0.90;;;;;;;;;;4932787;29;20088;-79
2023/08/28 09:10:47;;;;;;;3.33;1.15;;;;;;;;;;4923421;29;20115;-79
2023/08/28 09:13:13;;;;;;;3.47;1.00;;;;;;;;;;4906718;29;20106;-78
2023/08/28 09:15:39;;;;;;;2.53;1.02;;;;;;;;;;4923204;29;20043;-78
2023/08/28 09:18:05;;;;;;;3.15;1.30;;;;;;;;;;4906601;29;20020;-77
2023/08/28 09:20:31;;;;;;;3.08;1.40;;;;;;;;;;4923453;29;20028;-78
2023/08/28 09:22:57;;;;;;;2.67;1.45;;;;;;;;;;4906393;29;20044;-78
2023/08/28 09:25:24;;;;;;;2.92;1.45;;;;;;;;;;4923117;29;20464;-80
2023/08/28 09:27:54;;;;;;;4.30;1.80;;;;;;;;;;4922878;29;20028;-81
2023/08/28 09:30:29;;;;;;;3.72;1.75;;;;;;;;;;4906220;29;20561;-80
2023/08/28 09:32:59;;;;;;;3.30;1.58;;;;;;;;;;4906490;29;20064;-80
2023/08/28 09:35:26;;;;;;;4.68;1.70;;;;;;;;;;4906469;29;20047;-80
2023/08/28 09:37:56;;;;;;;4.70;1.67;;;;;;;;;;4923133;29;20035;-80
2023/08/28 09:40:26;;;;;;;5.18;1.60;;;;;;;;;;4893618;29;20036;-80
2023/08/28 09:42:52;;;;;;;3.33;1.20;;;;;;;;;;4905087;29;20028;-80
2023/08/28 09:45:18;;;;;;;4.15;1.30;;;;;;;;;;4905829;29;20062;-81
2023/08/28 09:47:44;;;;;;;4.70;1.70;;;;;;;;;;4924768;29;20035;-81
2023/08/28 09:50:11;;;;;;;2.45;1.33;;;;;;;;;;4906356;29;20038;-80
2023/08/28 09:52:37;;;;;;;3.25;1.23;;;;;;;;;;4906115;29;20024;-79
2023/08/28 09:55:04;;;;;;;4.43;1.70;;;;;;;;;;4922701;29;20503;-81
2023/08/28 09:57:31;;;;;;;4.03;1.60;;;;;;;;;;4922943;29;20024;-80
2023/08/28 09:59:57;;;;;;;2.53;1.30;;;;;;;;;;4922952;29;20025;-81
2023/08/28 10:02:23;;;;;;;3.13;1.58;;;;;;;;;;4905668;29;20056;-80
2023/08/28 10:04:50;;;;;;;2.47;1.45;;;;;;;;;;4922873;29;20083;-80
2023/08/28 10:07:17;;;;;;;4.32;1.48;;;;;;;;;;4922666;29;20060;-79
2023/08/28 10:09:43;;;;;;;4.82;1.55;;;;;;;;;;4922575;29;20385;-81
2023/08/28 10:12:11;;;;;;;3.92;1.60;;;;;;;;;;4922570;29;20028;-80
2023/08/28 10:14:39;;;;;;;2.88;1.10;;;;;;;;;;4905793;29;20099;-80
2023/08/28 10:17:05;;;;;;;3.03;1.15;;;;;;;;;;4922104;29;20028;-79
2023/08/28 10:19:36;;;;;;;2.80;1.13;;;;;;;;;;4922376;29;20025;-79
2023/08/28 10:22:03;;;;;;;3.53;1.50;;;;;;;;;;4921406;29;20052;-81
2023/08/28 10:24:30;;;;;;;2.63;1.30;;;;;;;;;;4921574;29;20076;-81
2023/08/28 10:26:57;;;;;;;2.00;1.30;;;;;;;;;;4904895;29;20045;-79
2023/08/28 10:29:23;;;;;;;3.03;1.50;;;;;;;;;;4905702;29;20119;-80
2023/08/28 10:31:49;;;;;;;4.22;1.60;;;;;;;;;;4921706;29;20032;-79
2023/08/28 10:34:16;;;;;;;4.05;1.27;;;;;;;;;;4905210;29;20508;-79
2023/08/28 10:36:44;;;;;;;2.97;1.30;;;;;;;;;;4922035;29;20056;-79
2023/08/28 10:39:11;;;;;;;4.07;1.45;;;;;;;;;;4922333;29;20025;-79
2023/08/28 10:42:15;;;;;;;2.28;1.30;;;;;;;;;;4905434;29;20024;-89
2023/08/28 10:44:42;;;;;;;2.97;1.20;;;;;;;;;;4905545;29;20523;-84
2023/08/28 10:47:08;;;;;;;2.28;1.10;;;;;;;;;;4922084;29;20103;-80
2023/08/28 10:49:34;;;;;;;1.83;1.08;;;;;;;;;;4923652;29;20397;-79
2023/08/28 10:52:02;;;;;;;3.13;1.20;;;;;;;;;;4922025;29;20028;-79
2023/08/28 10:54:37;;;;;;;2.10;1.20;;;;;;;;;;4905043;29;20088;-80
2023/08/28 10:57:10;;;;;;;2.90;1.10;;;;;;;;;;4904744;29;20545;-78
2023/08/28 10:59:45;;;;;;;2.17;1.10;;;;;;;;;;4921586;29;20028;-81
2023/08/28 11:02:11;;;;;;;3.95;1.20;;;;;;;;;;4919553;29;20056;-80
2023/08/28 11:04:39;;;;;;;1.95;1.10;;;;;;;;;;4920719;29;20040;-81
2023/08/28 11:07:08;;;;;;;2.92;0.95;;;;;;;;;;4921560;29;20047;-78
2023/08/28 11:09:35;;;;;;;3.03;1.17;;;;;;;;;;4904757;29;20492;-80
2023/08/28 11:12:01;;;;;;;1.73;0.90;;;;;;;;;;4918062;29;20059;-78
2023/08/28 11:14:35;;;;;;;1.38;0.90;;;;;;;;;;4904163;29;20039;-79
2023/08/28 11:17:20;;;;;;;2.90;1.10;;;;;;;;;;4920947;29;20032;-80
2023/08/28 11:20:00;;;;;;;2.47;1.05;;;;;;;;;;4903983;29;20401;-79
2023/08/28 11:22:29;;;;;;;2.30;1.10;;;;;;;;;;4921011;29;20028;-80
2023/08/28 11:24:56;;;;;;;3.42;1.20;;;;;;;;;;4903503;29;20056;-79
2023/08/28 11:27:34;;;;;;;3.95;1.10;;;;;;;;;;4903083;29;20031;-81
2023/08/28 11:30:04;;;;;;;2.63;1.00;;;;;;;;;;4903677;29;20028;-81
2023/08/28 11:32:31;;;;;;;2.95;1.20;;;;;;;;;;4903744;29;20032;-83
2023/08/28 11:35:04;;;;;;;3.40;1.20;;;;;;;;;;4903577;29;20056;-81
2023/08/28 11:37:34;;;;;;;3.85;1.10;;;;;;;;;;4903533;29;20024;-81
2023/08/28 11:40:00;;;;;;;3.72;1.02;;;;;;;;;;4903064;29;20481;-81
2023/08/28 11:42:28;;;;;;;2.05;1.20;;;;;;;;;;4920430;29;20470;-81
2023/08/28 11:44:54;;;;;;;2.42;1.10;;;;;;;;;;4920069;29;20032;-82
2023/08/28 11:47:27;;;;;;;2.20;1.00;;;;;;;;;;4903030;29;20050;-83
2023/08/28 11:49:57;;;;;;;4.10;1.13;;;;;;;;;;4904378;29;20519;-77
2023/08/28 11:52:23;;;;;;;2.28;1.10;;;;;;;;;;4920528;29;20029;-80
2023/08/28 11:54:50;;;;;;;2.70;1.10;;;;;;;;;;4920101;29;20028;-79
2023/08/28 11:57:19;;;;;;;2.65;1.20;;;;;;;;;;4920141;29;20557;-80
2023/08/28 11:59:45;;;;;;;4.18;1.10;;;;;;;;;;4920596;29;20435;-79
2023/08/28 12:02:15;;;;;;;3.92;1.20;;;;;;;;;;4918493;29;20438;-81
2023/08/28 12:04:42;;;;;;;2.33;0.90;;;;;;;;;;4919137;29;20051;-79
2023/08/28 12:07:22;;;;;;;2.45;1.10;;;;;;;;;;4906464;29;20394;-78
2023/08/28 12:09:49;;;;;;;3.60;1.20;;;;;;;;;;4902813;29;20111;-79
2023/08/28 12:12:15;;;;;;;2.45;0.85;;;;;;;;;;4918643;29;20076;-79
2023/08/28 12:14:43;;;;;;;3.63;1.20;;;;;;;;;;4923187;29;20032;-79
2023/08/28 12:17:12;;;;;;;2.15;1.13;;;;;;;;;;4918479;29;20025;-78
2023/08/28 12:19:38;;;;;;;2.63;0.90;;;;;;;;;;4919234;29;20016;-77
2023/08/28 12:22:05;;;;;;;3.95;1.13;;;;;;;;;;4929586;29;20394;-76
2023/08/28 12:24:31;;;;;;;4.30;0.98;;;;;;;;;;4902466;29;20052;-78
2023/08/28 12:26:57;;;;;;;3.28;1.05;;;;;;;;;;4918843;29;20028;-78
2023/08/28 12:29:26;;;;;;;3.08;0.90;;;;;;;;;;4923517;29;20024;-77
2023/08/28 12:31:52;;;;;;;2.28;0.95;;;;;;;;;;4922314;29;20115;-79
2023/08/28 12:34:19;;;;;;;2.63;1.13;;;;;;;;;;4920187;29;20075;-79
2023/08/28 12:36:46;;;;;;;2.72;1.10;;;;;;;;;;4919718;29;20389;-80
2023/08/28 12:39:21;;;;;;;2.28;1.17;;;;;;;;;;4919795;29;20358;-79
2023/08/28 12:41:54;;;;;;;4.60;1.08;;;;;;;;;;4920242;29;20032;-80
2023/08/28 12:44:20;;;;;;;3.13;1.55;;;;;;;;;;4920365;29;20059;-80
2023/08/28 12:46:46;;;;;;;3.00;0.90;;;;;;;;;;4919536;29;20032;-80
2023/08/28 12:49:13;;;;;;;2.55;1.20;;;;;;;;;;4921570;29;20024;-81
2023/08/28 12:51:39;;;;;;;2.60;1.05;;;;;;;;;;4919759;29;20024;-80
2023/08/28 12:54:06;;;;;;;3.20;1.15;;;;;;;;;;4903243;29;20074;-83
2023/08/28 12:56:40;;;;;;;2.88;1.05;;;;;;;;;;4902983;29;20481;-85
2023/08/28 12:59:06;;;;;;;2.95;1.20;;;;;;;;;;4903052;29;20537;-83
2023/08/28 13:01:34;;;;;;;3.80;1.40;;;;;;;;;;4920104;29;20030;-82
2023/08/28 13:04:00;;;;;;;3.13;1.17;;;;;;;;;;4920507;29;20028;-82
2023/08/28 13:06:26;;;;;;;3.33;0.90;;;;;;;;;;4932160;29;20032;-79
2023/08/28 13:08:52;;;;;;;3.35;1.33;;;;;;;;;;4919987;29;20039;-81
2023/08/28 13:11:18;;;;;;;3.38;1.17;;;;;;;;;;4902828;29;20028;-81
2023/08/28 13:13:45;;;;;;;3.17;1.20;;;;;;;;;;4901894;29;20032;-78
2023/08/28 13:16:10;;;;;;;4.63;1.60;;;;;;;;;;4914967;29;20084;-78
2023/08/28 13:18:37;;;;;;;2.88;1.20;;;;;;;;;;4922771;29;20032;-81
2023/08/28 13:21:05;;;;;;;4.72;1.00;;;;;;;;;;4923016;29;20035;-80
2023/08/28 13:23:31;;;;;;;2.33;1.10;;;;;;;;;;4920107;29;20045;-80
2023/08/28 13:25:57;;;;;;;3.55;1.15;;;;;;;;;;4906046;29;20083;-81
2023/08/28 13:28:23;;;;;;;5.25;1.40;;;;;;;;;;4919334;29;20183;-80
2023/08/28 13:30:49;;;;;;;5.68;1.67;;;;;;;;;;4922858;29;20107;-80
2023/08/28 13:33:15;;;;;;;4.93;1.60;;;;;;;;;;4906120;29;20063;-81
2023/08/28 13:35:41;;;;;;;3.30;1.30;;;;;;;;;;4922769;29;20124;-79
2023/08/28 13:38:07;;;;;;;2.60;1.08;;;;;;;;;;4917032;29;20032;-77
2023/08/28 13:40:34;;;;;;;2.88;1.20;;;;;;;;;;4921390;29;20024;-77
2023/08/28 13:43:05;;;;;;;5.05;1.17;;;;;;;;;;4923073;29;20055;-77
2023/08/28 13:45:32;;;;;;;3.53;1.30;;;;;;;;;;4923021;29;20032;-77
2023/08/28 13:48:00;;;;;;;2.10;1.10;;;;;;;;;;4923713;29;20405;-77
2023/08/28 13:50:27;;;;;;;2.42;1.10;;;;;;;;;;4922641;29;20036;-80
2023/08/28 13:52:56;;;;;;;4.53;1.08;;;;;;;;;;4905859;29;20032;-77
2023/08/28 13:55:27;;;;;;;4.63;1.35;;;;;;;;;;4905111;29;20617;-77
2023/08/28 13:57:53;;;;;;;2.53;1.17;;;;;;;;;;4903231;29;20032;-79
2023/08/28 14:00:21;;;;;;;3.45;1.42;;;;;;;;;;4918988;29;20043;-76
2023/08/28 14:02:50;;;;;;;2.80;1.30;;;;;;;;;;4922465;29;20096;-77
2023/08/28 14:05:16;;;;;;;4.82;1.35;;;;;;;;;;4922319;29;20482;-76
2023/08/28 14:07:43;;;;;;;4.13;1.10;;;;;;;;;;4922378;29;20123;-77
2023/08/28 14:10:11;;;;;;;2.83;1.30;;;;;;;;;;4905733;29;20035;-76
2023/08/28 14:12:40;;;;;;;4.35;1.45;;;;;;;;;;4922271;29;20474;-77
2023/08/28 14:15:07;;;;;;;2.83;1.20;;;;;;;;;;4921773;29;20028;-76
2023/08/28 14:17:35;;;;;;;4.28;1.35;;;;;;;;;;4905149;29;20107;-77
2023/08/28 14:20:03;;;;;;;3.03;1.00;;;;;;;;;;4922507;29;20020;-76
2023/08/28 14:22:32;;;;;;;6.13;1.90;;;;;;;;;;4921986;29;20105;-76
2023/08/28 14:24:58;;;;;;;4.82;1.33;;;;;;;;;;4904934;29;20623;-76
2023/08/28 14:27:26;;;;;;;3.70;1.10;;;;;;;;;;4926207;29;20028;-76
2023/08/28 14:29:52;;;;;;;4.35;1.30;;;;;;;;;;4927575;29;20032;-77
2023/08/28 14:32:18;;;;;;;2.30;1.27;;;;;;;;;;4921892;29;20495;-77
2023/08/28 14:34:44;;;;;;;3.72;1.30;;;;;;;;;;4905322;29;20493;-78
2023/08/28 14:37:13;;;;;;;2.97;1.40;;;;;;;;;;4905373;29;20040;-78
2023/08/28 14:39:41;;;;;;;4.07;1.65;;;;;;;;;;4921361;29;20395;-77
2023/08/28 14:42:07;;;;;;;3.03;1.30;;;;;;;;;;4922316;29;20032;-79
2023/08/28 14:44:41;;;;;;;4.57;1.50;;;;;;;;;;4905908;29;20028;-79
2023/08/28 14:47:07;;;;;;;2.72;1.35;;;;;;;;;;4915223;29;20038;-79
2023/08/28 14:49:35;;;;;;;3.40;1.30;;;;;;;;;;4905939;29;20107;-78
2023/08/28 14:52:03;;;;;;;3.45;1.40;;;;;;;;;;4930255;29;20036;-79
2023/08/28 14:54:30;;;;;;;4.10;1.25;;;;;;;;;;4925302;29;20677;-79
2023/08/28 14:57:14;;;;;;;3.60;1.13;;;;;;;;;;4904178;29;20039;-81
2023/08/28 14:59:40;;;;;;;3.85;1.17;;;;;;;;;;4904471;29;20028;-77
2023/08/28 15:02:07;;;;;;;2.45;1.13;;;;;;;;;;4903666;29;20028;-78
2023/08/28 15:04:35;;;;;;;4.88;1.45;;;;;;;;;;4920724;29;20028;-80